createdAt,value
2023-01-29T00:00:12.858Z,16.30
2023-01-29T00:05:26.972Z,13.15
2023-01-29T00:10:29.347Z,14.65
2023-01-29T00:15:30.953Z,22.05
2023-01-29T00:20:32.540Z,27.90
2023-01-29T00:25:34.133Z,24.75
2023-01-29T00:30:36.772Z,15.95
2023-01-29T00:35:40.152Z,15.40
2023-01-29T00:41:00.576Z,15.90
2023-01-29T00:46:02.193Z,22.35
2023-01-29T00:51:04.217Z,17.20
2023-01-29T00:56:06.212Z,30.63
2023-01-29T01:01:07.826Z,29.10
2023-01-29T01:06:11.037Z,27.60
2023-01-29T01:11:12.631Z,20.27
2023-01-29T01:16:17.034Z,23.85
2023-01-29T01:21:18.655Z,22.15
2023-01-29T01:26:20.230Z,18.02
2023-01-29T01:31:21.955Z,23.85
2023-01-29T01:36:23.613Z,22.48
2023-01-29T01:41:25.400Z,18.58
2023-01-29T01:46:32.069Z,17.65
2023-01-29T01:51:37.520Z,16.25
2023-01-29T01:56:44.275Z,20.80
2023-01-29T02:01:52.223Z,19.27
2023-01-29T02:07:14.318Z,18.90
2023-01-29T02:12:17.083Z,19.85
2023-01-29T02:17:20.274Z,21.35
2023-01-29T02:22:40.622Z,20.50
2023-01-29T02:27:55.453Z,19.75
2023-01-29T02:33:11.142Z,19.98
2023-01-29T02:38:33.051Z,19.67
2023-01-29T02:43:55.724Z,24.23
2023-01-29T02:49:04.857Z,24.13
2023-01-29T02:54:43.102Z,50.50
2023-01-29T02:59:54.959Z,31.63
2023-01-29T03:05:01.735Z,22.25
2023-01-29T03:10:12.040Z,23.73
2023-01-29T03:15:25.039Z,37.70
2023-01-29T03:20:32.770Z,28.45
2023-01-29T03:25:55.529Z,28.95
2023-01-29T03:31:22.019Z,22.85
2023-01-29T03:36:38.179Z,25.73
2023-01-29T03:42:01.292Z,24.38
2023-01-29T03:47:21.043Z,29.95
2023-01-29T03:52:39.183Z,27.00
2023-01-29T03:58:00.976Z,32.38
2023-01-29T04:03:17.829Z,25.75
2023-01-29T04:08:27.602Z,24.92
2023-01-29T04:13:33.788Z,25.98
2023-01-29T04:18:36.403Z,24.67
2023-01-29T04:23:38.093Z,26.73
2023-01-29T04:29:07.570Z,25.27
2023-01-29T04:34:18.147Z,23.20
2023-01-29T04:39:32.041Z,25.02
2023-01-29T04:44:54.475Z,27.88
2023-01-29T04:50:11.689Z,24.65
2023-01-29T04:55:30.036Z,23.65
2023-01-29T05:00:35.709Z,25.60
2023-01-29T05:05:41.642Z,25.63
2023-01-29T05:10:43.305Z,25.27
2023-01-29T05:15:53.158Z,25.08
2023-01-29T05:20:57.369Z,26.55
2023-01-29T05:25:59.185Z,26.90
2023-01-29T05:31:00.880Z,25.23
2023-01-29T05:36:02.593Z,24.08
2023-01-29T05:41:04.191Z,26.88
2023-01-29T05:46:05.800Z,25.65
2023-01-29T05:51:07.403Z,25.15
2023-01-29T05:56:09.029Z,27.52
2023-01-29T06:01:16.535Z,29.80
2023-01-29T06:06:18.164Z,26.40
2023-01-29T06:11:20.634Z,24.70
2023-01-29T06:16:22.270Z,24.65
2023-01-29T06:21:23.876Z,27.55
2023-01-29T06:26:25.465Z,26.70
2023-01-29T06:31:38.657Z,24.77
2023-01-29T06:36:41.893Z,27.60
2023-01-29T06:41:45.384Z,28.95
2023-01-29T06:46:46.993Z,28.38
2023-01-29T06:51:48.705Z,26.90
2023-01-29T06:56:50.388Z,29.02
2023-01-29T07:01:52.092Z,24.67
2023-01-29T07:06:53.729Z,27.80
2023-01-29T07:11:55.310Z,27.20
2023-01-29T07:16:56.887Z,26.02
2023-01-29T07:22:02.380Z,23.83
2023-01-29T07:27:03.992Z,22.35
2023-01-29T07:32:06.122Z,24.95
2023-01-29T07:37:07.948Z,25.73
2023-01-29T07:42:09.593Z,26.83
2023-01-29T07:47:12.360Z,31.67
2023-01-29T07:52:13.955Z,25.65
2023-01-29T07:57:15.528Z,29.20
2023-01-29T08:02:17.214Z,25.58
2023-01-29T08:07:18.868Z,28.48
2023-01-29T08:12:20.498Z,26.88
2023-01-29T08:17:22.095Z,27.58
2023-01-29T08:22:23.676Z,28.88
2023-01-29T08:27:25.344Z,26.10
2023-01-29T08:32:27.105Z,26.05
2023-01-29T08:37:28.687Z,25.02
2023-01-29T08:42:30.316Z,27.08
2023-01-29T08:47:31.916Z,32.53
2023-01-29T08:52:33.508Z,31.15
2023-01-29T08:57:35.248Z,29.95
2023-01-29T09:02:37.792Z,27.35
2023-01-29T09:07:39.518Z,28.98
2023-01-29T09:12:41.114Z,30.35
2023-01-29T09:17:43.256Z,29.20
2023-01-29T09:22:45.104Z,29.52
2023-01-29T09:27:46.729Z,27.55
2023-01-29T09:32:55.495Z,25.00
2023-01-29T09:37:57.711Z,26.45
2023-01-29T09:43:07.170Z,26.77
2023-01-29T09:48:13.344Z,26.33
2023-01-29T09:53:24.548Z,25.73
2023-01-29T10:04:08.798Z,29.30
2023-01-29T10:09:16.131Z,26.10
2023-01-29T10:14:23.867Z,24.25
2023-01-29T10:19:34.437Z,25.08
2023-01-29T10:24:48.401Z,22.58
2023-01-29T10:29:54.314Z,21.17
2023-01-29T10:35:01.779Z,26.80
2023-01-29T10:40:12.751Z,21.30
2023-01-29T10:45:26.224Z,17.73
2023-01-29T10:51:01.844Z,17.33
2023-01-29T10:56:20.904Z,27.17
2023-01-29T11:01:24.244Z,23.13
2023-01-29T11:06:25.908Z,20.00
2023-01-29T11:11:59.445Z,16.73
2023-01-29T11:17:01.098Z,16.45
2023-01-29T11:22:04.428Z,17.48
2023-01-29T11:27:20.733Z,18.25
2023-01-29T11:32:22.299Z,17.40
2023-01-29T11:37:31.361Z,17.88
2023-01-29T11:42:33.856Z,17.70
2023-01-29T11:47:35.688Z,17.92
2023-01-29T11:52:40.991Z,18.02
2023-01-29T11:57:46.870Z,17.88
2023-01-29T12:03:19.416Z,17.58
2023-01-29T12:08:23.567Z,19.20
2023-01-29T12:13:28.495Z,17.05
2023-01-29T12:18:42.627Z,18.35
2023-01-29T12:23:57.886Z,16.80
2023-01-29T12:29:12.506Z,18.02
2023-01-29T12:34:46.379Z,17.75
2023-01-29T12:39:50.114Z,16.77
2023-01-29T12:44:51.633Z,18.42
2023-01-29T12:49:57.871Z,16.92
2023-01-29T12:55:06.512Z,20.23
2023-01-29T13:00:24.028Z,19.67
2023-01-29T13:05:36.753Z,18.30
2023-01-29T13:10:43.126Z,14.82
2023-01-29T13:15:45.929Z,15.77
2023-01-29T13:20:49.864Z,16.38
2023-01-29T13:25:55.186Z,14.65
2023-01-29T13:31:28.521Z,13.40
2023-01-29T13:36:31.817Z,14.70
2023-01-29T13:41:37.140Z,12.98
2023-01-29T13:46:41.608Z,14.20
2023-01-29T13:51:43.506Z,14.60
2023-01-29T13:56:59.247Z,13.63
2023-01-29T14:02:03.961Z,14.75
2023-01-29T14:07:43.575Z,13.32
2023-01-29T14:12:46.736Z,14.35
2023-01-29T14:18:14.607Z,15.85
2023-01-29T14:23:31.238Z,13.35
2023-01-29T14:28:34.911Z,12.82
2023-01-29T14:33:43.383Z,13.07
2023-01-29T14:38:51.094Z,12.45
2023-01-29T14:44:32.436Z,13.73
2023-01-29T14:49:54.775Z,12.80
2023-01-29T14:55:01.650Z,16.13
2023-01-29T15:00:07.254Z,14.85
2023-01-29T15:05:18.109Z,14.35
2023-01-29T15:10:45.640Z,13.63
2023-01-29T15:16:04.537Z,13.63
2023-01-29T15:21:13.168Z,13.38
2023-01-29T15:26:21.139Z,13.23
2023-01-29T15:31:22.969Z,16.65
2023-01-29T15:36:28.976Z,14.25
2023-01-29T15:41:30.679Z,13.55
2023-01-29T15:46:37.609Z,14.02
2023-01-29T15:51:39.695Z,14.30
2023-01-29T15:56:45.683Z,15.43
2023-01-29T16:01:47.462Z,16.15
2023-01-29T16:06:52.888Z,14.45
2023-01-29T16:11:58.772Z,14.88
2023-01-29T16:17:23.331Z,17.05
2023-01-29T16:22:29.306Z,27.92
2023-01-29T16:27:32.446Z,17.85
2023-01-29T16:32:34.177Z,16.13
2023-01-29T16:37:36.466Z,15.45
2023-01-29T16:42:38.614Z,15.07
2023-01-29T16:47:43.719Z,18.35
2023-01-29T16:53:03.007Z,20.40
2023-01-29T16:58:14.031Z,17.80
2023-01-29T17:03:17.846Z,19.45
2023-01-29T17:08:42.860Z,20.48
2023-01-29T17:13:45.933Z,23.40
2023-01-29T17:18:47.558Z,19.98
2023-01-29T17:23:49.647Z,21.75
2023-01-29T17:28:52.460Z,19.67
2023-01-29T17:33:54.048Z,20.75
2023-01-29T17:38:55.632Z,35.70
2023-01-29T17:43:57.239Z,27.83
2023-01-29T17:48:58.844Z,20.95
2023-01-29T17:54:00.420Z,20.10
2023-01-29T17:59:02.052Z,22.42
2023-01-29T18:04:03.898Z,20.85
2023-01-29T18:09:06.112Z,19.10
2023-01-29T18:14:13.995Z,22.98
2023-01-29T18:19:23.112Z,23.88
2023-01-29T18:24:26.594Z,22.30
2023-01-29T18:29:30.316Z,28.17
2023-01-29T18:34:31.979Z,26.10
2023-01-29T18:39:33.664Z,22.00
2023-01-29T18:44:35.275Z,20.48
2023-01-29T18:49:39.893Z,21.13
2023-01-29T18:54:42.605Z,22.75
2023-01-29T18:59:44.454Z,23.38
2023-01-29T19:04:46.922Z,21.33
2023-01-29T19:09:50.555Z,25.73
2023-01-29T19:14:52.281Z,29.40
2023-01-29T19:19:56.362Z,32.35
2023-01-29T19:24:58.201Z,31.73
2023-01-29T19:29:59.925Z,38.17
2023-01-29T19:35:01.576Z,40.65
2023-01-29T19:40:03.427Z,42.33
2023-01-29T19:45:05.647Z,39.60
2023-01-29T19:50:08.810Z,39.72
2023-01-29T19:55:10.586Z,40.97
2023-01-29T20:00:12.719Z,42.10
2023-01-29T20:05:17.605Z,43.63
2023-01-29T20:10:20.061Z,43.88
2023-01-29T20:15:22.847Z,46.20
2023-01-29T20:20:24.682Z,44.17
2023-01-29T20:25:33.047Z,46.78
2023-01-29T20:30:35.241Z,49.33
2023-01-29T20:35:37.409Z,48.72
2023-01-29T20:40:38.996Z,49.47
2023-01-29T20:45:40.664Z,49.55
2023-01-29T20:50:42.987Z,47.38
2023-01-29T20:55:45.569Z,53.65
2023-01-29T21:00:47.791Z,48.10
2023-01-29T21:05:50.362Z,49.15
2023-01-29T21:10:52.861Z,50.42
2023-01-29T21:15:54.476Z,49.95
2023-01-29T21:20:56.619Z,48.22
2023-01-29T21:26:05.126Z,50.15
2023-01-29T21:31:14.414Z,44.70
2023-01-29T21:36:16.092Z,49.97
2023-01-29T21:41:17.683Z,46.00
2023-01-29T21:46:19.306Z,46.65
2023-01-29T21:51:20.951Z,44.92
2023-01-29T21:56:22.564Z,44.50
2023-01-29T22:01:37.393Z,42.90
2023-01-29T22:06:40.184Z,43.58
2023-01-29T22:11:41.811Z,39.70
2023-01-29T22:16:43.430Z,42.05
2023-01-29T22:21:45.061Z,42.17
2023-01-29T22:26:48.546Z,39.95
2023-01-29T22:31:51.019Z,39.75
2023-01-29T22:36:52.794Z,40.42
2023-01-29T22:41:54.415Z,37.78
2023-01-29T22:46:56.013Z,40.90
2023-01-29T22:52:12.894Z,42.03
2023-01-29T22:57:15.216Z,43.20
2023-01-29T23:02:16.819Z,44.55
2023-01-29T23:07:18.425Z,41.97
2023-01-29T23:12:20.028Z,42.97
2023-01-29T23:17:21.642Z,39.97
2023-01-29T23:22:23.339Z,39.90
2023-01-29T23:27:24.946Z,40.00
2023-01-29T23:32:26.546Z,37.05
2023-01-29T23:37:28.160Z,37.58
2023-01-29T23:42:29.743Z,36.42
2023-01-29T23:47:31.356Z,34.47
2023-01-29T23:52:32.954Z,38.92
2023-01-29T23:57:34.555Z,37.90
